sensor_id;sensor_type;location;lat;lon;timestamp;temperature;humidity
16655;DHT22;8441;51.344;7.022;2023-08-30T00:01:12;13.10;99.90
16655;DHT22;8441;51.344;7.022;2023-08-30T00:03:39;13.10;99.90
16655;DHT22;8441;51.344;7.022;2023-08-30T00:06:07;13.00;99.90
16655;DHT22;8441;51.344;7.022;2023-08-30T00:08:35;13.00;99.90
16655;DHT22;8441;51.344;7.022;2023-08-30T00:11:03;13.00;99.90
16655;DHT22;8441;51.344;7.022;2023-08-30T00:13:31;13.10;99.90
16655;DHT22;8441;51.344;7.022;2023-08-30T00:15:59;13.20;99.90
16655;DHT22;8441;51.344;7.022;2023-08-30T00:18:28;13.20;99.90
16655;DHT22;8441;51.344;7.022;2023-08-30T00:20:55;13.30;99.90
16655;DHT22;8441;51.344;7.022;2023-08-30T00:23:22;13.30;99.90
16655;DHT22;8441;51.344;7.022;2023-08-30T00:25:49;13.40;99.90
16655;DHT22;8441;51.344;7.022;2023-08-30T00:28:18;13.30;99.90
16655;DHT22;8441;51.344;7.022;2023-08-30T00:30:45;13.20;99.90
16655;DHT22;8441;51.344;7.022;2023-08-30T00:33:13;13.20;99.90
16655;DHT22;8441;51.344;7.022;2023-08-30T00:35:40;13.20;99.90
16655;DHT22;8441;51.344;7.022;2023-08-30T00:38:07;13.30;99.90
16655;DHT22;8441;51.344;7.022;2023-08-30T00:40:40;13.30;99.90
16655;DHT22;8441;51.344;7.022;2023-08-30T00:43:07;13.30;99.90
16655;DHT22;8441;51.344;7.022;2023-08-30T00:45:37;13.40;99.90
16655;DHT22;8441;51.344;7.022;2023-08-30T00:48:06;13.40;99.90
16655;DHT22;8441;51.344;7.022;2023-08-30T00:50:34;13.50;99.90
16655;DHT22;8441;51.344;7.022;2023-08-30T00:53:02;13.60;99.90
16655;DHT22;8441;51.344;7.022;2023-08-30T00:55:31;13.70;99.90
16655;DHT22;8441;51.344;7.022;2023-08-30T00:57:59;13.60;99.90
16655;DHT22;8441;51.344;7.022;2023-08-30T01:00:27;13.60;99.90
16655;DHT22;8441;51.344;7.022;2023-08-30T01:02:56;13.60;99.90
16655;DHT22;8441;51.344;7.022;2023-08-30T01:05:23;13.60;99.90
16655;DHT22;8441;51.344;7.022;2023-08-30T01:07:51;13.60;99.90
16655;DHT22;8441;51.344;7.022;2023-08-30T01:10:24;13.50;99.90
16655;DHT22;8441;51.344;7.022;2023-08-30T01:13:09;13.40;99.90
16655;DHT22;8441;51.344;7.022;2023-08-30T01:15:38;13.40;99.90
16655;DHT22;8441;51.344;7.022;2023-08-30T01:18:09;13.30;99.90
16655;DHT22;8441;51.344;7.022;2023-08-30T01:20:38;13.20;99.90
16655;DHT22;8441;51.344;7.022;2023-08-30T01:23:07;13.10;99.90
16655;DHT22;8441;51.344;7.022;2023-08-30T01:25:48;13.10;99.90
16655;DHT22;8441;51.344;7.022;2023-08-30T01:28:23;13.00;99.90
16655;DHT22;8441;51.344;7.022;2023-08-30T01:30:52;13.00;99.90
16655;DHT22;8441;51.344;7.022;2023-08-30T01:33:21;12.90;99.90
16655;DHT22;8441;51.344;7.022;2023-08-30T01:35:49;12.90;99.90
16655;DHT22;8441;51.344;7.022;2023-08-30T01:38:18;12.90;99.90
16655;DHT22;8441;51.344;7.022;2023-08-30T01:40:45;12.90;99.90
16655;DHT22;8441;51.344;7.022;2023-08-30T01:43:14;12.80;99.90
16655;DHT22;8441;51.344;7.022;2023-08-30T01:45:44;12.80;99.90
16655;DHT22;8441;51.344;7.022;2023-08-30T01:48:13;12.80;99.90
16655;DHT22;8441;51.344;7.022;2023-08-30T01:50:41;12.80;99.90
16655;DHT22;8441;51.344;7.022;2023-08-30T01:53:11;12.80;99.90
16655;DHT22;8441;51.344;7.022;2023-08-30T01:55:38;12.80;99.90
16655;DHT22;8441;51.344;7.022;2023-08-30T01:58:07;12.80;99.90
16655;DHT22;8441;51.344;7.022;2023-08-30T02:00:34;12.80;99.90
16655;DHT22;8441;51.344;7.022;2023-08-30T02:03:09;12.80;99.90
16655;DHT22;8441;51.344;7.022;2023-08-30T02:05:39;12.80;99.90
16655;DHT22;8441;51.344;7.022;2023-08-30T02:08:14;12.80;99.90
16655;DHT22;8441;51.344;7.022;2023-08-30T02:10:48;12.90;99.90
16655;DHT22;8441;51.344;7.022;2023-08-30T02:13:16;13.00;99.90
16655;DHT22;8441;51.344;7.022;2023-08-30T02:15:45;12.90;99.90
16655;DHT22;8441;51.344;7.022;2023-08-30T02:18:15;12.80;99.90
16655;DHT22;8441;51.344;7.022;2023-08-30T02:20:42;12.80;99.90
16655;DHT22;8441;51.344;7.022;2023-08-30T02:23:09;12.80;99.90
16655;DHT22;8441;51.344;7.022;2023-08-30T02:25:37;12.70;99.90
16655;DHT22;8441;51.344;7.022;2023-08-30T02:28:05;12.70;99.90
16655;DHT22;8441;51.344;7.022;2023-08-30T02:30:32;12.60;99.90
16655;DHT22;8441;51.344;7.022;2023-08-30T02:32:59;12.70;99.90
16655;DHT22;8441;51.344;7.022;2023-08-30T02:35:27;12.60;99.90
16655;DHT22;8441;51.344;7.022;2023-08-30T02:37:55;12.50;99.90
16655;DHT22;8441;51.344;7.022;2023-08-30T02:40:22;12.50;99.90
16655;DHT22;8441;51.344;7.022;2023-08-30T02:42:49;12.50;99.90
16655;DHT22;8441;51.344;7.022;2023-08-30T02:45:16;12.50;99.90
16655;DHT22;8441;51.344;7.022;2023-08-30T02:47:44;12.50;99.90
16655;DHT22;8441;51.344;7.022;2023-08-30T02:50:11;12.50;99.90
16655;DHT22;8441;51.344;7.022;2023-08-30T02:52:40;12.50;99.90
16655;DHT22;8441;51.344;7.022;2023-08-30T02:55:07;12.50;99.90
16655;DHT22;8441;51.344;7.022;2023-08-30T02:57:34;12.50;99.90
16655;DHT22;8441;51.344;7.022;2023-08-30T03:00:02;12.50;99.90
16655;DHT22;8441;51.344;7.022;2023-08-30T03:02:31;12.50;99.90
16655;DHT22;8441;51.344;7.022;2023-08-30T03:04:59;12.40;99.90
16655;DHT22;8441;51.344;7.022;2023-08-30T03:07:28;12.40;99.90
16655;DHT22;8441;51.344;7.022;2023-08-30T03:09:57;12.30;99.90
16655;DHT22;8441;51.344;7.022;2023-08-30T03:12:24;12.30;99.90
16655;DHT22;8441;51.344;7.022;2023-08-30T03:14:51;12.20;99.90
16655;DHT22;8441;51.344;7.022;2023-08-30T03:17:18;12.10;99.90
16655;DHT22;8441;51.344;7.022;2023-08-30T03:19:46;12.00;99.90
16655;DHT22;8441;51.344;7.022;2023-08-30T03:22:13;12.00;99.90
16655;DHT22;8441;51.344;7.022;2023-08-30T03:24:40;12.00;99.90
16655;DHT22;8441;51.344;7.022;2023-08-30T03:27:09;12.00;99.90
16655;DHT22;8441;51.344;7.022;2023-08-30T03:29:36;12.00;99.90
16655;DHT22;8441;51.344;7.022;2023-08-30T03:32:03;11.90;99.90
16655;DHT22;8441;51.344;7.022;2023-08-30T03:34:30;11.90;99.90
16655;DHT22;8441;51.344;7.022;2023-08-30T03:36:57;11.90;99.90
16655;DHT22;8441;51.344;7.022;2023-08-30T03:39:25;11.90;99.90
16655;DHT22;8441;51.344;7.022;2023-08-30T03:41:52;11.80;99.90
16655;DHT22;8441;51.344;7.022;2023-08-30T03:44:20;11.90;99.90
16655;DHT22;8441;51.344;7.022;2023-08-30T03:46:48;11.80;99.90
16655;DHT22;8441;51.344;7.022;2023-08-30T03:49:15;11.80;99.90
16655;DHT22;8441;51.344;7.022;2023-08-30T03:51:42;11.70;99.90
16655;DHT22;8441;51.344;7.022;2023-08-30T03:54:09;11.80;99.90
16655;DHT22;8441;51.344;7.022;2023-08-30T03:56:41;11.70;99.90
16655;DHT22;8441;51.344;7.022;2023-08-30T03:59:09;11.70;99.90
16655;DHT22;8441;51.344;7.022;2023-08-30T04:01:38;11.70;99.90
16655;DHT22;8441;51.344;7.022;2023-08-30T04:04:05;11.70;99.90
16655;DHT22;8441;51.344;7.022;2023-08-30T04:06:32;11.70;99.90
16655;DHT22;8441;51.344;7.022;2023-08-30T04:08:59;11.70;99.90
16655;DHT22;8441;51.344;7.022;2023-08-30T04:11:27;11.70;99.90
16655;DHT22;8441;51.344;7.022;2023-08-30T04:13:54;11.70;99.90
16655;DHT22;8441;51.344;7.022;2023-08-30T04:16:21;11.80;99.90
16655;DHT22;8441;51.344;7.022;2023-08-30T04:18:50;11.70;99.90
16655;DHT22;8441;51.344;7.022;2023-08-30T04:21:17;11.70;99.90
16655;DHT22;8441;51.344;7.022;2023-08-30T04:23:44;11.70;99.90
16655;DHT22;8441;51.344;7.022;2023-08-30T04:26:11;11.70;99.90
16655;DHT22;8441;51.344;7.022;2023-08-30T04:28:38;11.70;99.90
16655;DHT22;8441;51.344;7.022;2023-08-30T04:31:05;11.70;99.90
16655;DHT22;8441;51.344;7.022;2023-08-30T04:33:32;11.70;99.90
16655;DHT22;8441;51.344;7.022;2023-08-30T04:36:01;11.60;99.90
16655;DHT22;8441;51.344;7.022;2023-08-30T04:38:30;11.60;99.90
16655;DHT22;8441;51.344;7.022;2023-08-30T04:40:57;11.70;99.90
16655;DHT22;8441;51.344;7.022;2023-08-30T04:43:25;11.70;99.90
16655;DHT22;8441;51.344;7.022;2023-08-30T04:45:53;11.80;99.90
16655;DHT22;8441;51.344;7.022;2023-08-30T04:48:20;11.90;99.90
16655;DHT22;8441;51.344;7.022;2023-08-30T04:50:47;12.00;99.90
16655;DHT22;8441;51.344;7.022;2023-08-30T04:53:16;12.00;99.90
16655;DHT22;8441;51.344;7.022;2023-08-30T04:55:43;12.10;99.90
16655;DHT22;8441;51.344;7.022;2023-08-30T04:58:10;12.10;99.90
16655;DHT22;8441;51.344;7.022;2023-08-30T05:00:38;12.10;99.90
16655;DHT22;8441;51.344;7.022;2023-08-30T05:03:05;12.20;99.90
16655;DHT22;8441;51.344;7.022;2023-08-30T05:05:32;12.10;99.90
16655;DHT22;8441;51.344;7.022;2023-08-30T05:08:00;12.10;99.90
16655;DHT22;8441;51.344;7.022;2023-08-30T05:10:29;12.10;99.90
16655;DHT22;8441;51.344;7.022;2023-08-30T05:12:56;12.20;99.90
16655;DHT22;8441;51.344;7.022;2023-08-30T05:15:23;12.20;99.90
16655;DHT22;8441;51.344;7.022;2023-08-30T05:17:50;12.20;99.90
16655;DHT22;8441;51.344;7.022;2023-08-30T05:20:17;12.20;99.90
16655;DHT22;8441;51.344;7.022;2023-08-30T05:22:44;12.10;99.90
16655;DHT22;8441;51.344;7.022;2023-08-30T05:25:12;12.20;99.90
16655;DHT22;8441;51.344;7.022;2023-08-30T05:27:40;12.20;99.90
16655;DHT22;8441;51.344;7.022;2023-08-30T05:30:08;12.20;99.90
16655;DHT22;8441;51.344;7.022;2023-08-30T05:32:35;12.20;99.90
16655;DHT22;8441;51.344;7.022;2023-08-30T05:35:03;12.30;99.90
16655;DHT22;8441;51.344;7.022;2023-08-30T05:37:31;12.40;99.90
16655;DHT22;8441;51.344;7.022;2023-08-30T05:39:58;12.30;99.90
16655;DHT22;8441;51.344;7.022;2023-08-30T05:42:25;12.30;99.90
16655;DHT22;8441;51.344;7.022;2023-08-30T05:44:54;12.40;99.90
16655;DHT22;8441;51.344;7.022;2023-08-30T05:47:22;12.40;99.90
16655;DHT22;8441;51.344;7.022;2023-08-30T05:49:49;12.40;99.90
16655;DHT22;8441;51.344;7.022;2023-08-30T05:52:16;12.40;99.90
16655;DHT22;8441;51.344;7.022;2023-08-30T05:54:43;12.50;99.90
16655;DHT22;8441;51.344;7.022;2023-08-30T05:57:11;12.50;99.90
16655;DHT22;8441;51.344;7.022;2023-08-30T05:59:38;12.50;99.90
16655;DHT22;8441;51.344;7.022;2023-08-30T06:02:06;12.60;99.90
16655;DHT22;8441;51.344;7.022;2023-08-30T06:04:33;12.60;99.90
16655;DHT22;8441;51.344;7.022;2023-08-30T06:07:01;12.70;99.90
16655;DHT22;8441;51.344;7.022;2023-08-30T06:09:29;12.80;99.90
16655;DHT22;8441;51.344;7.022;2023-08-30T06:11:56;12.90;99.90
16655;DHT22;8441;51.344;7.022;2023-08-30T06:14:23;12.90;99.90
16655;DHT22;8441;51.344;7.022;2023-08-30T06:16:50;13.00;99.90
16655;DHT22;8441;51.344;7.022;2023-08-30T06:19:19;13.00;99.90
16655;DHT22;8441;51.344;7.022;2023-08-30T06:21:46;13.10;99.90
16655;DHT22;8441;51.344;7.022;2023-08-30T06:24:13;13.10;99.90
16655;DHT22;8441;51.344;7.022;2023-08-30T06:26:40;13.20;99.90
16655;DHT22;8441;51.344;7.022;2023-08-30T06:29:08;13.20;99.90
16655;DHT22;8441;51.344;7.022;2023-08-30T06:31:35;13.30;99.90
16655;DHT22;8441;51.344;7.022;2023-08-30T06:34:02;13.30;99.90
16655;DHT22;8441;51.344;7.022;2023-08-30T06:36:31;13.40;99.90
16655;DHT22;8441;51.344;7.022;2023-08-30T06:38:58;13.50;99.90
16655;DHT22;8441;51.344;7.022;2023-08-30T06:41:25;13.50;99.90
16655;DHT22;8441;51.344;7.022;2023-08-30T06:43:53;13.60;99.90
16655;DHT22;8441;51.344;7.022;2023-08-30T06:46:20;13.70;99.90
16655;DHT22;8441;51.344;7.022;2023-08-30T06:48:47;13.80;99.90
16655;DHT22;8441;51.344;7.022;2023-08-30T06:51:15;13.80;99.90
16655;DHT22;8441;51.344;7.022;2023-08-30T06:53:43;13.90;99.90
16655;DHT22;8441;51.344;7.022;2023-08-30T06:56:11;14.00;99.90
16655;DHT22;8441;51.344;7.022;2023-08-30T06:58:39;14.10;99.90
16655;DHT22;8441;51.344;7.022;2023-08-30T07:01:06;14.10;99.90
16655;DHT22;8441;51.344;7.022;2023-08-30T07:03:33;14.20;99.90
16655;DHT22;8441;51.344;7.022;2023-08-30T07:06:00;14.30;99.90
16655;DHT22;8441;51.344;7.022;2023-08-30T07:08:28;14.30;99.90
16655;DHT22;8441;51.344;7.022;2023-08-30T07:10:56;14.40;99.90
16655;DHT22;8441;51.344;7.022;2023-08-30T07:13:23;14.40;99.90
16655;DHT22;8441;51.344;7.022;2023-08-30T07:15:50;14.50;99.90
16655;DHT22;8441;51.344;7.022;2023-08-30T07:18:18;14.50;99.90
16655;DHT22;8441;51.344;7.022;2023-08-30T07:20:45;14.70;99.90
16655;DHT22;8441;51.344;7.022;2023-08-30T07:23:12;14.70;99.90
16655;DHT22;8441;51.344;7.022;2023-08-30T07:25:39;14.80;99.90
16655;DHT22;8441;51.344;7.022;2023-08-30T07:28:08;14.90;99.90
16655;DHT22;8441;51.344;7.022;2023-08-30T07:30:35;14.90;99.90
16655;DHT22;8441;51.344;7.022;2023-08-30T07:33:04;15.00;99.90
16655;DHT22;8441;51.344;7.022;2023-08-30T07:35:31;15.00;99.90
16655;DHT22;8441;51.344;7.022;2023-08-30T07:37:59;15.10;99.90
16655;DHT22;8441;51.344;7.022;2023-08-30T07:40:27;15.20;99.90
16655;DHT22;8441;51.344;7.022;2023-08-30T07:42:54;15.20;99.90
16655;DHT22;8441;51.344;7.022;2023-08-30T07:45:23;15.30;99.90
16655;DHT22;8441;51.344;7.022;2023-08-30T07:47:50;15.40;99.90
16655;DHT22;8441;51.344;7.022;2023-08-30T07:50:17;15.40;99.90
16655;DHT22;8441;51.344;7.022;2023-08-30T07:52:45;15.50;99.90
16655;DHT22;8441;51.344;7.022;2023-08-30T07:55:13;15.60;99.90
16655;DHT22;8441;51.344;7.022;2023-08-30T07:57:41;15.70;99.90
16655;DHT22;8441;51.344;7.022;2023-08-30T08:00:09;15.80;99.90
16655;DHT22;8441;51.344;7.022;2023-08-30T08:02:38;15.90;99.90
16655;DHT22;8441;51.344;7.022;2023-08-30T08:05:06;16.00;99.90
16655;DHT22;8441;51.344;7.022;2023-08-30T08:07:35;16.10;99.90
16655;DHT22;8441;51.344;7.022;2023-08-30T08:10:03;16.20;99.90
16655;DHT22;8441;51.344;7.022;2023-08-30T08:12:32;16.30;99.90
16655;DHT22;8441;51.344;7.022;2023-08-30T08:14:59;16.30;99.90
16655;DHT22;8441;51.344;7.022;2023-08-30T08:17:26;16.50;99.90
16655;DHT22;8441;51.344;7.022;2023-08-30T08:19:55;16.60;99.90
16655;DHT22;8441;51.344;7.022;2023-08-30T08:22:22;16.80;99.90
16655;DHT22;8441;51.344;7.022;2023-08-30T08:24:49;16.90;99.90
16655;DHT22;8441;51.344;7.022;2023-08-30T08:27:17;17.20;99.90
16655;DHT22;8441;51.344;7.022;2023-08-30T08:29:44;17.50;99.90
16655;DHT22;8441;51.344;7.022;2023-08-30T08:32:11;17.70;99.90
16655;DHT22;8441;51.344;7.022;2023-08-30T08:34:39;18.00;99.90
16655;DHT22;8441;51.344;7.022;2023-08-30T08:37:08;18.30;99.90
16655;DHT22;8441;51.344;7.022;2023-08-30T08:39:35;18.40;99.90
16655;DHT22;8441;51.344;7.022;2023-08-30T08:42:04;18.70;99.90
16655;DHT22;8441;51.344;7.022;2023-08-30T08:44:32;18.90;99.90
16655;DHT22;8441;51.344;7.022;2023-08-30T08:46:59;18.90;99.90
16655;DHT22;8441;51.344;7.022;2023-08-30T08:49:29;18.90;99.90
16655;DHT22;8441;51.344;7.022;2023-08-30T08:51:57;18.90;99.90
16655;DHT22;8441;51.344;7.022;2023-08-30T08:54:26;19.20;99.90
16655;DHT22;8441;51.344;7.022;2023-08-30T08:56:53;19.40;99.90
16655;DHT22;8441;51.344;7.022;2023-08-30T08:59:21;19.60;99.90
16655;DHT22;8441;51.344;7.022;2023-08-30T09:01:49;19.70;99.90
16655;DHT22;8441;51.344;7.022;2023-08-30T09:04:16;19.80;99.90
16655;DHT22;8441;51.344;7.022;2023-08-30T09:06:43;19.90;99.90
16655;DHT22;8441;51.344;7.022;2023-08-30T09:09:11;19.90;99.90
16655;DHT22;8441;51.344;7.022;2023-08-30T09:11:40;19.80;99.90
16655;DHT22;8441;51.344;7.022;2023-08-30T09:14:08;19.90;99.90
16655;DHT22;8441;51.344;7.022;2023-08-30T09:16:36;19.90;99.90
16655;DHT22;8441;51.344;7.022;2023-08-30T09:19:04;20.10;99.90
16655;DHT22;8441;51.344;7.022;2023-08-30T09:21:33;20.40;99.90
16655;DHT22;8441;51.344;7.022;2023-08-30T09:24:00;20.40;99.90
16655;DHT22;8441;51.344;7.022;2023-08-30T09:26:28;20.30;99.90
16655;DHT22;8441;51.344;7.022;2023-08-30T09:29:02;20.10;99.90
16655;DHT22;8441;51.344;7.022;2023-08-30T09:31:33;20.20;99.90
16655;DHT22;8441;51.344;7.022;2023-08-30T09:34:02;19.90;99.90
16655;DHT22;8441;51.344;7.022;2023-08-30T09:36:35;19.70;99.90
16655;DHT22;8441;51.344;7.022;2023-08-30T09:39:07;19.30;99.90
16655;DHT22;8441;51.344;7.022;2023-08-30T09:41:35;19.00;99.90
16655;DHT22;8441;51.344;7.022;2023-08-30T09:44:09;18.30;99.90
16655;DHT22;8441;51.344;7.022;2023-08-30T09:46:43;17.70;99.90
16655;DHT22;8441;51.344;7.022;2023-08-30T09:49:11;17.50;99.90
16655;DHT22;8441;51.344;7.022;2023-08-30T09:51:40;17.40;99.90
16655;DHT22;8441;51.344;7.022;2023-08-30T09:54:14;17.50;99.90
16655;DHT22;8441;51.344;7.022;2023-08-30T09:56:50;17.60;99.90
16655;DHT22;8441;51.344;7.022;2023-08-30T09:59:19;17.70;99.90
16655;DHT22;8441;51.344;7.022;2023-08-30T10:01:47;17.50;99.90
16655;DHT22;8441;51.344;7.022;2023-08-30T10:04:15;17.40;99.90
16655;DHT22;8441;51.344;7.022;2023-08-30T10:06:45;17.40;99.90
16655;DHT22;8441;51.344;7.022;2023-08-30T10:09:15;17.50;99.90
16655;DHT22;8441;51.344;7.022;2023-08-30T10:11:45;17.50;99.90
16655;DHT22;8441;51.344;7.022;2023-08-30T10:14:14;17.50;99.90
16655;DHT22;8441;51.344;7.022;2023-08-30T10:16:43;17.50;99.90
16655;DHT22;8441;51.344;7.022;2023-08-30T10:19:14;17.40;99.90
16655;DHT22;8441;51.344;7.022;2023-08-30T10:21:43;17.20;99.90
16655;DHT22;8441;51.344;7.022;2023-08-30T10:24:12;17.30;99.90
16655;DHT22;8441;51.344;7.022;2023-08-30T10:26:41;17.30;99.90
16655;DHT22;8441;51.344;7.022;2023-08-30T10:29:10;17.20;99.90
16655;DHT22;8441;51.344;7.022;2023-08-30T10:31:40;17.10;99.90
16655;DHT22;8441;51.344;7.022;2023-08-30T10:34:13;16.90;99.90
16655;DHT22;8441;51.344;7.022;2023-08-30T10:36:42;16.80;99.90
16655;DHT22;8441;51.344;7.022;2023-08-30T10:39:11;16.80;99.90
16655;DHT22;8441;51.344;7.022;2023-08-30T10:41:54;16.80;99.90
16655;DHT22;8441;51.344;7.022;2023-08-30T10:44:22;16.70;99.90
16655;DHT22;8441;51.344;7.022;2023-08-30T10:46:53;16.60;99.90
16655;DHT22;8441;51.344;7.022;2023-08-30T10:49:21;16.60;99.90
16655;DHT22;8441;51.344;7.022;2023-08-30T10:51:55;16.50;99.90
16655;DHT22;8441;51.344;7.022;2023-08-30T10:54:23;16.50;99.90
16655;DHT22;8441;51.344;7.022;2023-08-30T10:56:55;16.40;99.90
16655;DHT22;8441;51.344;7.022;2023-08-30T10:59:24;16.30;99.90
16655;DHT22;8441;51.344;7.022;2023-08-30T11:01:53;16.30;99.90
16655;DHT22;8441;51.344;7.022;2023-08-30T11:04:22;16.30;99.90
16655;DHT22;8441;51.344;7.022;2023-08-30T11:06:50;16.20;99.90
16655;DHT22;8441;51.344;7.022;2023-08-30T11:09:19;16.10;99.90
16655;DHT22;8441;51.344;7.022;2023-08-30T11:11:47;16.20;99.90
16655;DHT22;8441;51.344;7.022;2023-08-30T11:14:16;16.00;99.90
16655;DHT22;8441;51.344;7.022;2023-08-30T11:16:44;16.00;99.90
16655;DHT22;8441;51.344;7.022;2023-08-30T11:19:13;16.00;99.90
16655;DHT22;8441;51.344;7.022;2023-08-30T11:21:43;15.90;99.90
16655;DHT22;8441;51.344;7.022;2023-08-30T11:24:10;15.80;99.90
16655;DHT22;8441;51.344;7.022;2023-08-30T11:26:38;15.70;99.90
16655;DHT22;8441;51.344;7.022;2023-08-30T11:29:06;15.50;99.90
16655;DHT22;8441;51.344;7.022;2023-08-30T11:31:33;15.40;99.90
16655;DHT22;8441;51.344;7.022;2023-08-30T11:34:01;15.40;99.90
16655;DHT22;8441;51.344;7.022;2023-08-30T11:36:31;15.30;99.90
16655;DHT22;8441;51.344;7.022;2023-08-30T11:38:58;15.30;99.90
16655;DHT22;8441;51.344;7.022;2023-08-30T11:41:26;15.30;99.90
16655;DHT22;8441;51.344;7.022;2023-08-30T11:43:54;15.40;99.90
16655;DHT22;8441;51.344;7.022;2023-08-30T11:46:21;15.40;99.90
16655;DHT22;8441;51.344;7.022;2023-08-30T11:48:50;15.40;99.90
16655;DHT22;8441;51.344;7.022;2023-08-30T11:51:18;15.50;99.90
16655;DHT22;8441;51.344;7.022;2023-08-30T11:53:48;15.50;99.90
16655;DHT22;8441;51.344;7.022;2023-08-30T11:56:18;15.40;99.90
16655;DHT22;8441;51.344;7.022;2023-08-30T11:58:45;15.40;99.90
16655;DHT22;8441;51.344;7.022;2023-08-30T12:01:13;15.40;99.90
16655;DHT22;8441;51.344;7.022;2023-08-30T12:03:40;15.40;99.90
16655;DHT22;8441;51.344;7.022;2023-08-30T12:06:11;15.50;99.90
16655;DHT22;8441;51.344;7.022;2023-08-30T12:08:38;15.70;99.90
16655;DHT22;8441;51.344;7.022;2023-08-30T12:11:17;15.90;99.90
16655;DHT22;8441;51.344;7.022;2023-08-30T12:13:45;15.80;99.90
16655;DHT22;8441;51.344;7.022;2023-08-30T12:16:16;15.80;99.90
16655;DHT22;8441;51.344;7.022;2023-08-30T12:18:43;15.70;99.90
16655;DHT22;8441;51.344;7.022;2023-08-30T12:21:10;15.60;99.90
16655;DHT22;8441;51.344;7.022;2023-08-30T12:23:40;15.60;99.90
16655;DHT22;8441;51.344;7.022;2023-08-30T12:26:10;15.60;99.90
16655;DHT22;8441;51.344;7.022;2023-08-30T12:28:38;15.70;99.90
16655;DHT22;8441;51.344;7.022;2023-08-30T12:31:05;15.70;99.90
16655;DHT22;8441;51.344;7.022;2023-08-30T12:33:34;15.80;99.90
16655;DHT22;8441;51.344;7.022;2023-08-30T12:36:01;15.90;99.90
16655;DHT22;8441;51.344;7.022;2023-08-30T12:38:29;15.90;99.90
16655;DHT22;8441;51.344;7.022;2023-08-30T12:40:56;16.20;99.90
16655;DHT22;8441;51.344;7.022;2023-08-30T12:43:25;16.40;99.90
16655;DHT22;8441;51.344;7.022;2023-08-30T12:45:52;16.50;99.90
16655;DHT22;8441;51.344;7.022;2023-08-30T12:48:19;16.40;99.90
16655;DHT22;8441;51.344;7.022;2023-08-30T12:50:48;16.30;99.90
16655;DHT22;8441;51.344;7.022;2023-08-30T12:53:15;16.30;99.90
16655;DHT22;8441;51.344;7.022;2023-08-30T12:55:43;16.30;99.90
16655;DHT22;8441;51.344;7.022;2023-08-30T12:58:10;16.20;99.90
16655;DHT22;8441;51.344;7.022;2023-08-30T13:00:41;16.30;99.90
16655;DHT22;8441;51.344;7.022;2023-08-30T13:03:08;16.30;99.90
16655;DHT22;8441;51.344;7.022;2023-08-30T13:05:35;16.20;99.90
16655;DHT22;8441;51.344;7.022;2023-08-30T13:08:03;16.10;99.90
16655;DHT22;8441;51.344;7.022;2023-08-30T13:10:31;15.90;99.90
16655;DHT22;8441;51.344;7.022;2023-08-30T13:12:58;15.80;99.90
16655;DHT22;8441;51.344;7.022;2023-08-30T13:15:26;15.70;99.90
16655;DHT22;8441;51.344;7.022;2023-08-30T13:17:54;15.60;99.90
16655;DHT22;8441;51.344;7.022;2023-08-30T13:20:21;15.50;99.90
16655;DHT22;8441;51.344;7.022;2023-08-30T13:22:49;15.60;99.90
16655;DHT22;8441;51.344;7.022;2023-08-30T13:25:16;15.60;99.90
16655;DHT22;8441;51.344;7.022;2023-08-30T13:27:43;15.60;99.90
16655;DHT22;8441;51.344;7.022;2023-08-30T13:30:11;15.50;99.90
16655;DHT22;8441;51.344;7.022;2023-08-30T13:32:38;15.40;99.90
16655;DHT22;8441;51.344;7.022;2023-08-30T13:35:08;15.40;99.90
16655;DHT22;8441;51.344;7.022;2023-08-30T13:37:35;15.50;99.90
16655;DHT22;8441;51.344;7.022;2023-08-30T13:40:02;15.60;99.90
16655;DHT22;8441;51.344;7.022;2023-08-30T13:42:32;15.80;99.90
16655;DHT22;8441;51.344;7.022;2023-08-30T13:44:59;16.00;99.90
16655;DHT22;8441;51.344;7.022;2023-08-30T13:47:26;16.00;99.90
16655;DHT22;8441;51.344;7.022;2023-08-30T13:49:53;16.10;99.90
16655;DHT22;8441;51.344;7.022;2023-08-30T13:52:22;16.00;99.90
16655;DHT22;8441;51.344;7.022;2023-08-30T13:54:49;16.00;99.90
16655;DHT22;8441;51.344;7.022;2023-08-30T13:57:17;16.10;99.90
16655;DHT22;8441;51.344;7.022;2023-08-30T13:59:44;16.10;99.90
16655;DHT22;8441;51.344;7.022;2023-08-30T14:02:12;16.20;99.90
16655;DHT22;8441;51.344;7.022;2023-08-30T14:04:39;16.30;99.90
16655;DHT22;8441;51.344;7.022;2023-08-30T14:07:06;16.40;99.90
16655;DHT22;8441;51.344;7.022;2023-08-30T14:09:34;16.40;99.90
16655;DHT22;8441;51.344;7.022;2023-08-30T14:12:02;16.30;99.90
16655;DHT22;8441;51.344;7.022;2023-08-30T14:14:30;16.20;99.90
16655;DHT22;8441;51.344;7.022;2023-08-30T14:16:57;16.10;99.90
16655;DHT22;8441;51.344;7.022;2023-08-30T14:19:24;16.00;99.90
16655;DHT22;8441;51.344;7.022;2023-08-30T14:21:51;16.00;99.90
16655;DHT22;8441;51.344;7.022;2023-08-30T14:24:20;16.00;99.90
16655;DHT22;8441;51.344;7.022;2023-08-30T14:26:49;16.00;99.90
16655;DHT22;8441;51.344;7.022;2023-08-30T14:29:20;16.10;99.90
16655;DHT22;8441;51.344;7.022;2023-08-30T14:31:48;16.10;99.90
16655;DHT22;8441;51.344;7.022;2023-08-30T14:34:15;16.10;99.90
16655;DHT22;8441;51.344;7.022;2023-08-30T14:36:42;16.10;99.90
16655;DHT22;8441;51.344;7.022;2023-08-30T14:39:11;16.00;99.90
16655;DHT22;8441;51.344;7.022;2023-08-30T14:41:39;15.90;99.90
16655;DHT22;8441;51.344;7.022;2023-08-30T14:44:07;15.90;99.90
16655;DHT22;8441;51.344;7.022;2023-08-30T14:46:35;15.90;99.90
16655;DHT22;8441;51.344;7.022;2023-08-30T14:49:02;15.80;99.90
16655;DHT22;8441;51.344;7.022;2023-08-30T14:51:29;15.80;99.90
16655;DHT22;8441;51.344;7.022;2023-08-30T14:53:57;15.60;99.90
16655;DHT22;8441;51.344;7.022;2023-08-30T14:56:24;15.50;99.90
16655;DHT22;8441;51.344;7.022;2023-08-30T14:58:51;15.50;99.90
16655;DHT22;8441;51.344;7.022;2023-08-30T15:01:19;15.50;99.90
16655;DHT22;8441;51.344;7.022;2023-08-30T15:03:47;15.40;99.90
16655;DHT22;8441;51.344;7.022;2023-08-30T15:06:14;15.40;99.90
16655;DHT22;8441;51.344;7.022;2023-08-30T15:08:41;15.30;99.90
16655;DHT22;8441;51.344;7.022;2023-08-30T15:11:08;15.30;99.90
16655;DHT22;8441;51.344;7.022;2023-08-30T15:13:36;15.30;99.90
16655;DHT22;8441;51.344;7.022;2023-08-30T15:16:04;15.20;99.90
16655;DHT22;8441;51.344;7.022;2023-08-30T15:18:33;15.20;99.90
16655;DHT22;8441;51.344;7.022;2023-08-30T15:21:00;15.20;99.90
16655;DHT22;8441;51.344;7.022;2023-08-30T15:23:27;15.20;99.90
16655;DHT22;8441;51.344;7.022;2023-08-30T15:25:55;15.40;99.90
16655;DHT22;8441;51.344;7.022;2023-08-30T15:28:22;15.40;99.90
16655;DHT22;8441;51.344;7.022;2023-08-30T15:30:51;15.50;99.90
16655;DHT22;8441;51.344;7.022;2023-08-30T15:33:18;15.70;99.90
16655;DHT22;8441;51.344;7.022;2023-08-30T15:35:47;16.00;99.90
16655;DHT22;8441;51.344;7.022;2023-08-30T15:38:14;16.30;99.90
16655;DHT22;8441;51.344;7.022;2023-08-30T15:40:41;16.70;99.90
16655;DHT22;8441;51.344;7.022;2023-08-30T15:43:09;17.00;99.90
16655;DHT22;8441;51.344;7.022;2023-08-30T15:45:36;17.40;99.90
16655;DHT22;8441;51.344;7.022;2023-08-30T15:48:04;17.70;99.90
16655;DHT22;8441;51.344;7.022;2023-08-30T15:50:31;17.60;99.90